YELM weather

Elmore Airport
Victoria, Australia

Public forecast

Using degrees Celsius for public forecast. Weather courtesy of forecast.io.

METAR (pilot weather report)

Closest report is Melbourne International Airport, 71.7 nm (132.7 km) S. Retrieved 2019/03/19 21:08 UTC (0 seconds ago):

YMML 192108Z 24005KT 5000 BR FEW003 BKN018 19/18 Q1015 FM2108 21008KT 8000 -DZ BKN006 FM2200 22008KT 9999 -DZ FEW007 BKN012 FM2300 20008KT 9999 FEW010 BKN015 TEMPO 2108/2200 3000 DZ BKN003 TEMPO 2200/2400 5000 DZ BKN008

TAF (pilot weather forecast)

Closest forecast is Melbourne International Airport, 71.7 nm (132.7 km) S. Retrieved 2019/03/19 18:00 UTC (3 hours ago):

TAF YMML 191710Z 1918/2024 21008KT 8000 -DZ BKN005 FM192000 22008KT 9999 -DZ FEW007 BKN012 FM192300 20008KT 9999 FEW010 BKN018 FM200200 21008KT 9999 SCT030 FM200900 21008KT 9999 FEW007 BKN010 FM201200 24007KT 9999 -DZ BKN006 FM202200 22007KT 9999 FEW008 BKN012 TEMPO 1918/1921 2000 DZ BKN002 TEMPO 1921/1924 5000 DZ BKN008 TEMPO 2009/2023 5000 -DZ BKN005